createdAt,value
2019-02-23T00:01:48.040Z,9.80
2019-02-23T00:04:51.885Z,9.30
2019-02-23T00:07:55.742Z,9.23
2019-02-23T00:10:59.574Z,8.73
2019-02-23T00:14:03.446Z,8.73
2019-02-23T00:17:07.425Z,8.30
2019-02-23T00:20:11.337Z,9.10
2019-02-23T00:23:15.185Z,8.87
2019-02-23T00:26:19.081Z,9.60
2019-02-23T00:29:22.931Z,10.00
2019-02-23T00:32:26.798Z,10.97
2019-02-23T00:35:30.639Z,10.53
2019-02-23T00:38:34.579Z,13.53
2019-02-23T00:41:38.494Z,10.83
2019-02-23T00:44:42.329Z,9.97
2019-02-23T00:47:46.214Z,8.50
2019-02-23T00:50:50.056Z,10.30
2019-02-23T00:53:53.961Z,10.07
2019-02-23T00:57:04.457Z,8.63
2019-02-23T01:00:41.148Z,9.40
2019-02-23T01:03:45.204Z,8.03
2019-02-23T01:06:49.061Z,8.13
2019-02-23T01:09:52.934Z,7.17
2019-02-23T01:12:56.825Z,7.80
2019-02-23T01:16:00.642Z,6.90
2019-02-23T01:19:04.509Z,7.37
2019-02-23T01:22:08.355Z,6.67
2019-02-23T01:25:12.255Z,6.83
2019-02-23T01:28:16.092Z,7.10
2019-02-23T01:31:19.922Z,7.17
2019-02-23T01:34:23.760Z,6.20
2019-02-23T01:37:27.636Z,7.20
2019-02-23T01:40:31.523Z,7.40
2019-02-23T01:43:35.380Z,6.47
2019-02-23T01:46:39.229Z,6.77
2019-02-23T01:49:43.216Z,7.13
2019-02-23T01:52:47.050Z,7.67
2019-02-23T01:55:50.895Z,6.67
2019-02-23T01:58:54.755Z,7.30
2019-02-23T02:01:58.582Z,7.43
2019-02-23T02:05:02.459Z,6.37
2019-02-23T02:08:06.272Z,6.93
2019-02-23T02:11:10.139Z,7.00
2019-02-23T02:14:14.102Z,6.53
2019-02-23T02:17:17.952Z,6.70
2019-02-23T02:20:21.790Z,6.63
2019-02-23T02:23:25.626Z,7.33
2019-02-23T02:26:29.499Z,6.10
2019-02-23T02:29:33.304Z,6.40
2019-02-23T02:32:37.179Z,6.37
2019-02-23T02:35:41.075Z,7.10
2019-02-23T02:38:44.912Z,7.17
2019-02-23T02:41:48.770Z,7.17
2019-02-23T02:44:52.623Z,7.27
2019-02-23T02:47:56.490Z,6.73
2019-02-23T02:51:00.339Z,6.77
2019-02-23T02:54:04.296Z,7.50
2019-02-23T02:57:08.190Z,7.07
2019-02-23T03:00:13.127Z,6.47
2019-02-23T03:03:17.031Z,7.07
2019-02-23T03:06:20.856Z,6.70
2019-02-23T03:09:24.745Z,6.37
2019-02-23T03:12:28.637Z,7.17
2019-02-23T03:15:32.474Z,7.27
2019-02-23T03:18:36.308Z,6.47
2019-02-23T03:21:40.175Z,8.07
2019-02-23T03:24:44.050Z,7.90
2019-02-23T03:27:47.895Z,8.03
2019-02-23T03:30:51.762Z,8.20
2019-02-23T03:33:55.635Z,8.77
2019-02-23T03:36:59.535Z,8.07
2019-02-23T03:40:03.411Z,8.83
2019-02-23T03:43:07.227Z,9.27
2019-02-23T03:46:11.091Z,8.47
2019-02-23T03:49:14.967Z,8.63
2019-02-23T03:52:18.810Z,10.00
2019-02-23T03:55:22.659Z,9.47
2019-02-23T03:58:26.526Z,9.33
2019-02-23T04:01:30.332Z,9.23
2019-02-23T04:04:34.190Z,9.10
2019-02-23T04:07:38.082Z,9.27
2019-02-23T04:10:42.032Z,9.77
2019-02-23T04:13:45.882Z,8.77
2019-02-23T04:16:49.710Z,9.17
2019-02-23T04:19:53.576Z,8.57
2019-02-23T04:22:57.408Z,9.80
2019-02-23T04:26:01.256Z,8.40
2019-02-23T04:29:05.135Z,8.40
2019-02-23T04:32:09.049Z,9.43
2019-02-23T04:35:12.914Z,7.97
2019-02-23T04:38:16.748Z,9.00
2019-02-23T04:41:20.630Z,11.37
2019-02-23T04:44:24.498Z,11.60
2019-02-23T04:47:28.355Z,12.83
2019-02-23T04:50:32.229Z,12.93
2019-02-23T04:53:36.043Z,13.20
2019-02-23T04:56:39.917Z,12.50
2019-02-23T04:59:43.840Z,11.57
2019-02-23T05:02:47.678Z,10.33
2019-02-23T05:05:51.608Z,12.37
2019-02-23T05:08:55.444Z,10.67
2019-02-23T05:11:59.332Z,10.37
2019-02-23T05:15:03.183Z,10.83
2019-02-23T05:18:07.069Z,10.10
2019-02-23T05:21:10.896Z,10.80
2019-02-23T05:24:14.764Z,10.20
2019-02-23T05:27:18.623Z,10.03
2019-02-23T05:30:22.499Z,10.43
2019-02-23T05:33:26.370Z,10.50
2019-02-23T05:36:30.207Z,9.77
2019-02-23T05:39:34.071Z,10.07
2019-02-23T05:42:37.965Z,11.40
2019-02-23T05:45:41.835Z,13.20
2019-02-23T05:48:45.690Z,12.07
2019-02-23T05:51:49.531Z,16.47
2019-02-23T05:54:53.350Z,14.07
2019-02-23T05:57:57.223Z,15.10
2019-02-23T06:01:01.125Z,12.50
2019-02-23T06:04:04.970Z,13.10
2019-02-23T06:07:08.857Z,12.10
2019-02-23T06:10:12.709Z,11.80
2019-02-23T06:13:16.596Z,10.60
2019-02-23T06:16:20.446Z,10.50
2019-02-23T06:19:24.292Z,12.40
2019-02-23T06:22:28.109Z,12.23
2019-02-23T06:25:31.989Z,11.23
2019-02-23T06:28:35.882Z,11.27
2019-02-23T06:31:39.717Z,10.27
2019-02-23T06:34:43.581Z,11.37
2019-02-23T06:37:47.437Z,11.00
2019-02-23T06:40:51.341Z,13.53
2019-02-23T06:43:55.206Z,14.97
2019-02-23T06:46:59.054Z,17.17
2019-02-23T06:50:03.000Z,14.00
2019-02-23T06:53:06.880Z,13.63
2019-02-23T06:56:10.744Z,11.50
2019-02-23T06:59:14.597Z,11.90
2019-02-23T07:02:18.480Z,12.33
2019-02-23T07:05:36.263Z,15.33
2019-02-23T07:08:40.090Z,10.77
2019-02-23T07:11:43.940Z,11.37
2019-02-23T07:14:47.790Z,9.87
2019-02-23T07:17:51.611Z,11.93
2019-02-23T07:20:55.463Z,14.53
2019-02-23T07:23:59.357Z,13.80
2019-02-23T07:27:03.200Z,12.37
2019-02-23T07:30:09.982Z,11.97
2019-02-23T07:33:13.829Z,12.63
2019-02-23T07:36:17.690Z,12.00
2019-02-23T07:39:21.525Z,12.30
2019-02-23T07:42:25.418Z,12.37
2019-02-23T07:45:29.366Z,15.50
2019-02-23T07:48:33.192Z,17.03
2019-02-23T07:51:37.052Z,17.00
2019-02-23T07:54:40.900Z,15.43
2019-02-23T07:57:44.790Z,14.23
2019-02-23T08:00:48.616Z,14.87
2019-02-23T08:03:52.497Z,12.07
2019-02-23T08:06:56.387Z,15.00
2019-02-23T08:10:00.329Z,11.40
2019-02-23T08:13:04.235Z,14.10
2019-02-23T08:16:08.071Z,12.63
2019-02-23T08:19:11.918Z,11.97
2019-02-23T08:22:15.759Z,11.70
2019-02-23T08:25:19.604Z,11.27
2019-02-23T08:28:23.550Z,10.57
2019-02-23T08:31:27.410Z,11.27
2019-02-23T08:34:31.272Z,11.53
2019-02-23T08:37:35.163Z,10.83
2019-02-23T08:40:39.016Z,12.33
2019-02-23T08:43:42.884Z,11.77
2019-02-23T08:46:47.074Z,10.70
2019-02-23T08:49:51.192Z,11.30
2019-02-23T08:52:55.157Z,11.60
2019-02-23T08:55:59.023Z,10.57
2019-02-23T08:59:02.947Z,10.67
2019-02-23T09:02:06.857Z,10.67
2019-02-23T09:05:11.896Z,10.43
2019-02-23T09:08:15.791Z,9.87
2019-02-23T09:11:19.669Z,10.40
2019-02-23T09:14:23.601Z,10.37
2019-02-23T09:17:27.480Z,10.00
2019-02-23T09:20:31.362Z,10.23
2019-02-23T09:23:35.200Z,9.83
2019-02-23T09:26:39.051Z,9.93
2019-02-23T09:29:42.941Z,8.77
2019-02-23T09:32:46.800Z,8.80
2019-02-23T09:35:50.655Z,8.80
2019-02-23T09:38:54.470Z,9.33
2019-02-23T09:42:07.253Z,7.77
2019-02-23T09:45:03.879Z,6.73
2019-02-23T09:48:07.810Z,7.20
2019-02-23T09:51:11.650Z,7.70
2019-02-23T09:54:15.530Z,7.47
2019-02-23T09:57:19.400Z,6.63
2019-02-23T10:00:23.221Z,6.80
2019-02-23T10:03:27.095Z,7.40
2019-02-23T10:06:30.965Z,7.10
2019-02-23T10:09:34.838Z,6.80
2019-02-23T10:12:38.612Z,6.17
2019-02-23T10:15:42.471Z,5.77
2019-02-23T10:18:46.312Z,6.60
2019-02-23T10:21:50.196Z,6.33
2019-02-23T10:24:54.097Z,6.77
2019-02-23T10:27:59.310Z,6.63
2019-02-23T10:31:03.330Z,6.70
2019-02-23T10:34:07.139Z,7.33
2019-02-23T10:37:11.014Z,6.60
2019-02-23T10:40:14.856Z,6.97
2019-02-23T10:43:18.709Z,6.60
2019-02-23T10:46:22.546Z,5.53
2019-02-23T10:49:26.411Z,5.60
2019-02-23T10:52:30.321Z,6.10
2019-02-23T10:55:34.188Z,5.93
2019-02-23T10:58:38.031Z,6.13
2019-02-23T11:01:41.987Z,11.33
2019-02-23T11:04:45.856Z,14.80
2019-02-23T11:07:49.712Z,7.03
2019-02-23T11:10:53.553Z,6.33
2019-02-23T11:13:57.390Z,6.10
2019-02-23T11:17:01.286Z,6.47
2019-02-23T11:20:06.846Z,6.63
2019-02-23T11:23:10.734Z,6.00
2019-02-23T11:26:14.602Z,5.17
2019-02-23T11:29:18.444Z,5.70
2019-02-23T11:32:22.329Z,5.00
2019-02-23T11:35:26.160Z,5.97
2019-02-23T11:38:30.040Z,5.80
2019-02-23T11:41:33.880Z,5.07
2019-02-23T11:44:37.751Z,5.70
2019-02-23T11:47:41.742Z,5.17
2019-02-23T11:50:45.575Z,5.03
2019-02-23T11:53:54.835Z,5.40
2019-02-23T11:56:54.946Z,5.23
2019-02-23T11:59:58.808Z,5.67
2019-02-23T12:03:02.646Z,6.17
2019-02-23T12:06:06.515Z,6.60
2019-02-23T12:09:10.392Z,5.90
2019-02-23T12:12:14.274Z,5.60
2019-02-23T12:15:18.129Z,5.77
2019-02-23T12:18:22.917Z,5.40
2019-02-23T12:21:26.784Z,7.27
2019-02-23T12:24:30.638Z,5.70
2019-02-23T12:27:34.506Z,5.87
2019-02-23T12:30:38.376Z,6.00
2019-02-23T12:33:42.235Z,6.00
2019-02-23T12:36:46.136Z,5.67
2019-02-23T12:39:49.976Z,5.93
2019-02-23T12:42:53.837Z,5.40
2019-02-23T12:45:57.671Z,6.13
2019-02-23T12:49:01.520Z,5.43
2019-02-23T12:52:05.366Z,5.30
2019-02-23T12:55:10.931Z,5.30
2019-02-23T12:58:14.786Z,7.00
2019-02-23T13:01:18.637Z,6.30
2019-02-23T13:04:22.530Z,6.43
2019-02-23T13:07:26.357Z,6.30
2019-02-23T13:10:30.240Z,6.17
2019-02-23T13:13:42.625Z,6.37
2019-02-23T13:16:47.677Z,5.80
2019-02-23T13:20:09.071Z,8.10
2019-02-23T13:23:27.767Z,5.80
2019-02-23T13:26:56.892Z,6.60
2019-02-23T13:30:15.654Z,8.03
2019-02-23T13:33:25.241Z,6.83
2019-02-23T13:36:40.335Z,5.80
2019-02-23T13:39:58.928Z,7.00
2019-02-23T13:43:11.513Z,8.17
2019-02-23T13:46:43.912Z,5.80
2019-02-23T13:50:13.336Z,5.50
2019-02-23T13:53:47.253Z,5.77
2019-02-23T13:57:09.085Z,6.03
2019-02-23T14:00:35.190Z,6.43
2019-02-23T14:03:41.966Z,6.33
2019-02-23T14:07:00.649Z,6.17
2019-02-23T14:10:22.376Z,7.27
2019-02-23T14:13:34.871Z,5.07
2019-02-23T14:17:13.685Z,5.17
2019-02-23T14:20:43.045Z,6.37
2019-02-23T14:24:01.780Z,5.13
2019-02-23T14:27:23.616Z,7.87
2019-02-23T14:30:42.597Z,7.30
2019-02-23T14:34:04.629Z,6.23
2019-02-23T14:37:17.216Z,4.97
2019-02-23T14:40:29.907Z,6.17
2019-02-23T14:43:57.759Z,7.00
2019-02-23T14:47:20.846Z,6.47
2019-02-23T14:50:45.680Z,8.10
2019-02-23T14:54:07.624Z,10.20
2019-02-23T14:57:30.096Z,10.13
2019-02-23T15:01:10.630Z,6.50
2019-02-23T15:04:17.741Z,8.07
2019-02-23T15:07:24.554Z,8.17
2019-02-23T15:11:06.297Z,9.40
2019-02-23T15:14:22.177Z,9.53
2019-02-23T15:17:46.890Z,7.70
2019-02-23T15:20:56.429Z,6.13
2019-02-23T15:24:18.420Z,8.33
2019-02-23T15:27:25.483Z,13.20
2019-02-23T15:30:44.384Z,9.30
2019-02-23T15:34:12.129Z,7.83
2019-02-23T15:37:21.618Z,8.23
2019-02-23T15:40:28.472Z,10.87
2019-02-23T15:43:38.028Z,8.63
2019-02-23T15:47:17.014Z,11.97
2019-02-23T15:50:21.315Z,8.33
2019-02-23T15:53:25.191Z,8.00
2019-02-23T15:56:29.060Z,11.37
2019-02-23T15:59:33.040Z,7.97
2019-02-23T16:02:36.893Z,7.50
2019-02-23T16:05:42.237Z,11.30
2019-02-23T16:08:46.140Z,13.57
2019-02-23T16:11:50.047Z,13.50
2019-02-23T16:14:53.940Z,10.87
2019-02-23T16:17:57.795Z,9.60
2019-02-23T16:21:01.664Z,9.47
2019-02-23T16:24:05.521Z,11.50
2019-02-23T16:27:09.502Z,19.90
2019-02-23T16:30:13.631Z,18.30
2019-02-23T16:33:17.568Z,16.37
2019-02-23T16:36:21.450Z,16.63
2019-02-23T16:39:25.445Z,22.97
2019-02-23T16:42:30.590Z,20.03
2019-02-23T16:45:34.545Z,22.17
2019-02-23T16:48:38.507Z,23.90
2019-02-23T16:51:42.460Z,20.20
2019-02-23T16:54:46.296Z,15.77
2019-02-23T16:57:50.215Z,19.20
2019-02-23T17:00:54.130Z,26.40
2019-02-23T17:03:58.052Z,26.80
2019-02-23T17:07:01.972Z,29.37
2019-02-23T17:10:07.147Z,25.07
2019-02-23T17:13:11.001Z,23.65
2019-02-23T17:16:14.868Z,21.93
2019-02-23T17:19:18.718Z,23.40
2019-02-23T17:22:22.655Z,26.23
2019-02-23T17:25:26.628Z,24.07
2019-02-23T17:28:30.444Z,26.60
2019-02-23T17:31:34.291Z,25.03
2019-02-23T17:34:38.120Z,28.60
2019-02-23T17:37:42.009Z,26.87
2019-02-23T17:40:45.894Z,21.07
2019-02-23T17:43:49.808Z,22.63
2019-02-23T17:46:53.733Z,27.50
2019-02-23T17:49:57.566Z,27.57
2019-02-23T17:53:01.435Z,27.37
2019-02-23T17:56:12.100Z,29.57
2019-02-23T17:59:10.804Z,33.53
2019-02-23T18:02:14.734Z,34.43
2019-02-23T18:05:18.540Z,32.17
2019-02-23T18:08:22.392Z,32.63
2019-02-23T18:11:27.556Z,31.80
2019-02-23T18:14:32.907Z,29.07
2019-02-23T18:17:36.883Z,26.87
2019-02-23T18:20:40.754Z,25.27
2019-02-23T18:23:44.701Z,26.73
2019-02-23T18:26:50.020Z,23.67
2019-02-23T18:29:53.864Z,22.67
2019-02-23T18:32:57.831Z,22.67
2019-02-23T18:36:01.689Z,28.03
2019-02-23T18:39:05.829Z,28.30
2019-02-23T18:42:09.755Z,24.67
2019-02-23T18:45:13.609Z,24.63
2019-02-23T18:48:17.458Z,27.77
2019-02-23T18:51:21.374Z,23.80
2019-02-23T18:54:25.190Z,24.87
2019-02-23T18:57:29.074Z,24.13
2019-02-23T19:00:32.987Z,22.20
2019-02-23T19:03:36.834Z,24.47
2019-02-23T19:06:40.800Z,20.73
2019-02-23T19:09:44.718Z,20.83
2019-02-23T19:12:48.563Z,20.60
2019-02-23T19:15:52.465Z,22.47
2019-02-23T19:18:56.483Z,21.80
2019-02-23T19:22:00.426Z,20.30
2019-02-23T19:25:04.792Z,20.33
2019-02-23T19:28:08.620Z,18.87
2019-02-23T19:31:12.581Z,18.40
2019-02-23T19:34:16.433Z,19.27
2019-02-23T19:37:20.303Z,20.20
2019-02-23T19:40:24.134Z,20.43
2019-02-23T19:43:28.010Z,22.73
2019-02-23T19:46:31.891Z,21.53
2019-02-23T19:49:35.755Z,20.27
2019-02-23T19:52:39.668Z,21.67
2019-02-23T19:55:43.541Z,22.53
2019-02-23T19:58:47.431Z,19.30
2019-02-23T20:01:51.296Z,22.33
2019-02-23T20:04:55.366Z,23.67
2019-02-23T20:07:59.263Z,24.37
2019-02-23T20:11:03.165Z,21.43
2019-02-23T20:14:07.155Z,22.33
2019-02-23T20:17:10.975Z,22.10
2019-02-23T20:20:14.961Z,22.73
2019-02-23T20:23:18.791Z,22.27
2019-02-23T20:26:22.690Z,24.13
2019-02-23T20:29:26.526Z,20.53
2019-02-23T20:32:30.871Z,21.60
2019-02-23T20:35:34.811Z,23.50
2019-02-23T20:38:39.570Z,23.87
2019-02-23T20:41:43.622Z,20.67
2019-02-23T20:44:47.472Z,21.60
2019-02-23T20:47:51.408Z,21.63
2019-02-23T20:50:55.355Z,23.27
2019-02-23T20:53:59.263Z,22.87
2019-02-23T20:57:05.211Z,24.30
2019-02-23T21:00:10.699Z,24.37
2019-02-23T21:03:14.731Z,28.33
2019-02-23T21:06:18.539Z,32.07
2019-02-23T21:09:22.514Z,34.10
2019-02-23T21:12:26.384Z,45.97
2019-02-23T21:15:30.344Z,34.67
2019-02-23T21:18:34.211Z,37.40
2019-02-23T21:21:38.116Z,40.70
2019-02-23T21:24:41.974Z,41.83
2019-02-23T21:27:45.877Z,43.90
2019-02-23T21:30:49.854Z,38.23
2019-02-23T21:33:53.659Z,41.43
2019-02-23T21:36:57.649Z,44.27
2019-02-23T21:40:01.506Z,43.97
2019-02-23T21:43:05.375Z,38.47
2019-02-23T21:46:09.202Z,35.70
2019-02-23T21:49:13.085Z,32.73
2019-02-23T21:52:17.002Z,40.17
2019-02-23T21:55:20.857Z,33.17
2019-02-23T21:58:26.536Z,36.50
2019-02-23T22:01:30.238Z,38.87
2019-02-23T22:04:34.151Z,40.83
2019-02-23T22:07:38.037Z,38.70
2019-02-23T22:10:41.892Z,41.87
2019-02-23T22:13:45.749Z,42.10
2019-02-23T22:16:49.636Z,41.30
2019-02-23T22:19:53.528Z,41.97
2019-02-23T22:22:57.385Z,44.37
2019-02-23T22:26:01.270Z,48.53
2019-02-23T22:29:05.095Z,46.07
2019-02-23T22:32:09.000Z,43.07
2019-02-23T22:35:13.131Z,45.30
2019-02-23T22:38:17.050Z,47.47
2019-02-23T22:41:20.912Z,40.73
2019-02-23T22:44:24.755Z,47.23
2019-02-23T22:47:28.682Z,47.40
2019-02-23T22:50:32.533Z,45.70
2019-02-23T22:53:36.412Z,47.27
2019-02-23T22:56:40.230Z,44.73
2019-02-23T22:59:44.111Z,50.10
2019-02-23T23:02:47.949Z,50.47
2019-02-23T23:05:51.819Z,47.53
2019-02-23T23:08:55.668Z,51.13
2019-02-23T23:11:59.528Z,55.03
2019-02-23T23:15:03.390Z,51.33
2019-02-23T23:18:07.252Z,56.20
2019-02-23T23:21:11.135Z,53.43
2019-02-23T23:24:16.299Z,54.80
2019-02-23T23:27:20.131Z,54.03
2019-02-23T23:30:23.996Z,59.80
2019-02-23T23:33:27.874Z,60.93
2019-02-23T23:36:31.716Z,58.10
2019-02-23T23:39:35.575Z,57.63
2019-02-23T23:42:39.422Z,57.50
2019-02-23T23:45:43.303Z,53.17
2019-02-23T23:48:47.162Z,54.80
2019-02-23T23:51:51.017Z,52.83
2019-02-23T23:54:54.891Z,56.83
2019-02-23T23:57:58.809Z,42.53
